NCAR-RAP Real-Time Weather Data

Output produced by METARs form (10 April 2020  07:17 UTC)
found at http://weather.rap.ucar.edu/surface/
 
KBOI 100653Z 14004KT 10SM CLR 11/03 A2992 RMK AO2 SLP120 T01060028 402170039
KBOI 100553Z 13005KT 10SM CLR 11/03 A2992 RMK AO2 SLP119 T01110028 10217 20111 51007
KBOI 100453Z 20004KT 10SM CLR 12/02 A2991 RMK AO2 SLP119 T01220022
KBOI 100353Z 00000KT 10SM CLR 16/02 A2991 RMK AO2 SLP116 T01610017
KBOI 100253Z 00000KT 10SM CLR 18/01 A2989 RMK AO2 SLP112 T01780006 55003
KBOI 100153Z 32008KT 10SM CLR 19/01 A2988 RMK AO2 SLP111 T01940006
KBOI 100053Z 30007KT 10SM CLR 21/00 A2989 RMK AO2 SLP110 T02110000
KBOI 092353Z 28006KT 10SM CLR 22/00 A2990 RMK AO2 SLP114 T02170000 10217 20156 56024
KBOI 092253Z 26005KT 10SM CLR 21/01 A2992 RMK AO2 SLP122 T02110006
KBOI 092153Z 25005KT 10SM CLR 21/01 A2995 RMK AO2 SLP131 T02060011
KBOI 092053Z VRB04KT 10SM CLR 19/02 A2998 RMK AO2 SLP141 T01940017 58018
KBOI 091953Z 27005KT 10SM CLR 18/01 A3000 RMK AO2 SLP149 T01830011
KBOI 091853Z 26005KT 10SM CLR 18/02 A3002 RMK AO2 SLP156 T01780017
KBOI 091753Z 00000KT 10SM CLR 16/00 A3003 RMK AO2 SLP160 T01610000 10161 20039 58006
KBOI 091653Z 00000KT 10SM CLR 13/00 A3005 RMK AO2 SLP165 T01330000
KBOI 091553Z 22005KT 10SM CLR 11/00 A3005 RMK AO2 SLP166 T01110000
KBOI 091453Z 15005KT 10SM CLR 08/M01 A3005 RMK AO2 SLP168 T00831006 53006
KBOI 091353Z 15003KT 10SM CLR 05/M01 A3004 RMK AO2 SLP167 T00501011
KBOI 091253Z 17003KT 10SM CLR 05/M01 A3004 RMK AO2 SLP163 T00501011
KBOI 091153Z 23003KT 10SM CLR 06/M02 A3003 RMK AO2 SLP160 T00611017 10111 20044 55005
KBOI 091053Z 18004KT 10SM CLR 05/M01 A3003 RMK AO2 SLP158 T00501011
KBOI 090953Z 15004KT 10SM CLR 06/M01 A3004 RMK AO2 SLP163 T00561011